createdAt,value
2023-04-09T00:01:43.703Z,13.07
2023-04-09T00:04:10.550Z,12.67
2023-04-09T00:06:37.167Z,13.47
2023-04-09T00:09:03.799Z,13.33
2023-04-09T00:11:31.131Z,13.37
2023-04-09T00:13:58.406Z,13.00
2023-04-09T00:16:25.248Z,15.32
2023-04-09T00:18:52.302Z,13.87
2023-04-09T00:21:20.437Z,12.27
2023-04-09T00:23:47.002Z,11.93
2023-04-09T00:26:13.644Z,12.73
2023-04-09T00:28:40.310Z,12.27
2023-04-09T00:31:06.924Z,13.07
2023-04-09T00:33:33.475Z,12.53
2023-04-09T00:36:00.270Z,13.73
2023-04-09T00:38:27.028Z,13.23
2023-04-09T00:40:53.552Z,13.43
2023-04-09T00:43:20.480Z,13.67
2023-04-09T00:45:47.834Z,13.03
2023-04-09T00:48:15.849Z,13.23
2023-04-09T00:50:42.882Z,13.40
2023-04-09T00:53:10.718Z,13.37
2023-04-09T00:55:40.234Z,13.10
2023-04-09T00:58:07.146Z,13.43
2023-04-09T01:00:33.806Z,13.57
2023-04-09T01:03:01.037Z,12.70
2023-04-09T01:05:54.188Z,13.90
2023-04-09T01:08:48.733Z,12.93
2023-04-09T01:11:37.772Z,12.03
2023-04-09T01:14:08.440Z,13.30
2023-04-09T01:16:37.773Z,13.43
2023-04-09T01:19:35.204Z,12.63
2023-04-09T01:22:05.662Z,13.13
2023-04-09T01:25:00.190Z,13.23
2023-04-09T01:27:37.627Z,13.10
2023-04-09T01:30:05.162Z,14.07
2023-04-09T01:32:35.326Z,13.70
2023-04-09T01:35:03.879Z,14.77
2023-04-09T01:37:30.660Z,13.53
2023-04-09T01:39:57.415Z,12.60
2023-04-09T01:42:24.617Z,12.60
2023-04-09T01:44:52.026Z,12.73
2023-04-09T01:47:19.527Z,13.33
2023-04-09T01:49:46.403Z,13.57
2023-04-09T01:52:13.260Z,12.67
2023-04-09T01:54:39.786Z,12.93
2023-04-09T01:57:06.364Z,13.47
2023-04-09T01:59:33.021Z,13.23
2023-04-09T02:02:09.434Z,12.63
2023-04-09T02:04:40.680Z,13.60
2023-04-09T02:07:38.668Z,12.90
2023-04-09T02:10:08.493Z,14.68
2023-04-09T02:12:37.453Z,13.87
2023-04-09T02:15:05.896Z,13.83
2023-04-09T02:17:32.563Z,14.03
2023-04-09T02:19:59.123Z,14.53
2023-04-09T02:22:25.710Z,14.20
2023-04-09T02:24:52.300Z,14.37
2023-04-09T02:27:18.841Z,15.43
2023-04-09T02:29:45.525Z,15.00
2023-04-09T02:32:12.106Z,14.93
2023-04-09T02:34:38.639Z,13.90
2023-04-09T02:37:05.253Z,13.43
2023-04-09T02:39:31.844Z,15.40
2023-04-09T02:41:58.507Z,14.10
2023-04-09T02:44:25.208Z,15.10
2023-04-09T02:46:52.533Z,13.80
2023-04-09T02:49:19.127Z,15.45
2023-04-09T02:51:45.830Z,15.03
2023-04-09T02:54:12.439Z,13.77
2023-04-09T02:56:39.005Z,13.80
2023-04-09T02:59:05.629Z,13.77
2023-04-09T03:01:32.256Z,14.33
2023-04-09T03:03:58.976Z,14.50
2023-04-09T03:06:26.500Z,14.87
2023-04-09T03:08:53.237Z,14.13
2023-04-09T03:11:19.915Z,14.30
2023-04-09T03:13:46.469Z,15.03
2023-04-09T03:16:13.030Z,15.40
2023-04-09T03:18:39.664Z,14.40
2023-04-09T03:21:07.575Z,14.53
2023-04-09T03:23:35.035Z,14.73
2023-04-09T03:26:05.849Z,15.97
2023-04-09T03:28:32.581Z,15.80
2023-04-09T03:30:59.205Z,14.87
2023-04-09T03:33:25.914Z,16.20
2023-04-09T03:35:52.744Z,15.30
2023-04-09T03:38:19.901Z,15.60
2023-04-09T03:40:46.468Z,14.70
2023-04-09T03:43:12.999Z,16.77
2023-04-09T03:45:39.573Z,15.07
2023-04-09T03:48:06.275Z,15.77
2023-04-09T03:50:38.600Z,14.67
2023-04-09T03:53:05.250Z,15.67
2023-04-09T03:55:31.838Z,15.93
2023-04-09T03:57:58.438Z,15.37
2023-04-09T04:00:24.992Z,14.83
2023-04-09T04:02:52.441Z,14.30
2023-04-09T04:05:19.155Z,14.73
2023-04-09T04:07:45.787Z,14.40
2023-04-09T04:10:12.470Z,13.40
2023-04-09T04:12:38.985Z,14.43
2023-04-09T04:15:06.078Z,15.17
2023-04-09T04:17:32.609Z,15.13
2023-04-09T04:19:59.211Z,14.57
2023-04-09T04:22:26.356Z,14.80
2023-04-09T04:24:53.051Z,15.00
2023-04-09T04:27:19.590Z,15.43
2023-04-09T04:29:46.147Z,15.53
2023-04-09T04:32:12.725Z,15.30
2023-04-09T04:34:39.278Z,14.73
2023-04-09T04:37:05.804Z,14.17
2023-04-09T04:39:32.348Z,16.83
2023-04-09T04:41:58.910Z,15.03
2023-04-09T04:44:25.480Z,14.43
2023-04-09T04:46:52.021Z,14.73
2023-04-09T04:49:18.530Z,14.10
2023-04-09T04:51:45.074Z,14.80
2023-04-09T04:54:11.700Z,14.37
2023-04-09T04:56:38.298Z,15.07
2023-04-09T04:59:04.869Z,13.60
2023-04-09T05:01:31.913Z,14.90
2023-04-09T05:03:58.616Z,14.87
2023-04-09T05:06:26.733Z,14.70
2023-04-09T05:08:54.350Z,14.53
2023-04-09T05:11:21.122Z,14.77
2023-04-09T05:13:47.705Z,17.92
2023-04-09T05:16:20.734Z,16.00
2023-04-09T05:18:47.763Z,17.37
2023-04-09T05:21:14.341Z,15.70
2023-04-09T05:23:40.846Z,17.43
2023-04-09T05:26:07.402Z,16.23
2023-04-09T05:28:34.055Z,17.80
2023-04-09T05:31:00.867Z,18.40
2023-04-09T05:33:27.444Z,18.07
2023-04-09T05:35:54.041Z,18.60
2023-04-09T05:38:20.651Z,18.03
2023-04-09T05:40:48.963Z,18.00
2023-04-09T05:43:15.491Z,17.83
2023-04-09T05:45:45.096Z,19.10
2023-04-09T05:48:11.693Z,18.37
2023-04-09T05:50:47.551Z,18.77
2023-04-09T05:53:22.485Z,20.23
2023-04-09T05:55:49.366Z,18.13
2023-04-09T05:58:18.621Z,17.43
2023-04-09T06:00:45.180Z,17.07
2023-04-09T06:03:11.872Z,16.07
2023-04-09T06:05:38.709Z,15.97
2023-04-09T06:08:05.321Z,15.97
2023-04-09T06:10:34.839Z,15.20
2023-04-09T06:13:01.475Z,13.87
2023-04-09T06:15:28.491Z,15.00
2023-04-09T06:17:56.522Z,14.40
2023-04-09T06:20:24.906Z,14.87
2023-04-09T06:22:51.426Z,14.23
2023-04-09T06:25:18.005Z,13.27
2023-04-09T06:27:44.526Z,12.33
2023-04-09T06:30:11.456Z,12.93
2023-04-09T06:32:51.160Z,13.20
2023-04-09T06:35:20.865Z,13.10
2023-04-09T06:37:47.446Z,12.80
2023-04-09T06:40:14.777Z,13.20
2023-04-09T06:42:41.404Z,13.90
2023-04-09T06:45:08.829Z,12.97
2023-04-09T06:47:36.017Z,12.93
2023-04-09T06:50:03.080Z,12.57
2023-04-09T06:52:29.611Z,12.97
2023-04-09T06:54:56.134Z,12.63
2023-04-09T06:57:22.686Z,13.60
2023-04-09T06:59:49.250Z,13.43
2023-04-09T07:02:16.049Z,13.80
2023-04-09T07:04:42.790Z,13.20
2023-04-09T07:07:09.526Z,13.53
2023-04-09T07:09:36.473Z,12.17
2023-04-09T07:12:03.031Z,13.50
2023-04-09T07:14:29.639Z,12.70
2023-04-09T07:16:56.309Z,13.03
2023-04-09T07:19:22.891Z,12.97
2023-04-09T07:21:49.454Z,13.37
2023-04-09T07:24:16.015Z,13.43
2023-04-09T07:26:42.750Z,12.90
2023-04-09T07:29:09.612Z,11.63
2023-04-09T07:31:36.224Z,11.27
2023-04-09T07:34:03.388Z,11.07
2023-04-09T07:36:30.130Z,11.40
2023-04-09T07:38:57.398Z,11.57
2023-04-09T07:41:23.986Z,11.57
2023-04-09T07:43:50.586Z,10.93
2023-04-09T07:46:21.952Z,11.68
2023-04-09T07:48:50.117Z,10.33
2023-04-09T07:51:18.167Z,10.77
2023-04-09T07:53:44.738Z,10.00
2023-04-09T07:56:12.821Z,9.43
2023-04-09T07:58:40.513Z,10.23
2023-04-09T08:01:08.429Z,9.43
2023-04-09T08:03:36.872Z,8.90
2023-04-09T08:06:04.530Z,7.67
2023-04-09T08:08:31.777Z,8.17
2023-04-09T08:10:59.254Z,7.90
2023-04-09T08:13:26.502Z,9.40
2023-04-09T08:15:54.419Z,8.53
2023-04-09T08:18:24.441Z,8.20
2023-04-09T08:20:54.437Z,8.48
2023-04-09T08:23:24.514Z,6.50
2023-04-09T08:25:53.507Z,5.83
2023-04-09T08:28:24.276Z,6.13
2023-04-09T08:30:54.622Z,6.17
2023-04-09T08:33:25.152Z,6.40
2023-04-09T08:35:57.352Z,6.37
2023-04-09T08:38:29.768Z,6.90
2023-04-09T08:41:02.151Z,6.30
2023-04-09T08:43:52.646Z,6.63
2023-04-09T08:46:27.424Z,7.17
2023-04-09T08:49:02.181Z,6.00
2023-04-09T08:51:40.703Z,6.10
2023-04-09T08:54:19.829Z,6.33
2023-04-09T08:56:47.663Z,5.93
2023-04-09T08:59:21.155Z,6.20
2023-04-09T09:02:00.098Z,7.07
2023-04-09T09:05:00.563Z,5.47
2023-04-09T09:07:38.072Z,6.10
2023-04-09T09:10:19.007Z,5.60
2023-04-09T09:12:48.014Z,3.93
2023-04-09T09:15:28.110Z,4.10
2023-04-09T09:17:56.488Z,5.20
2023-04-09T09:20:23.938Z,4.93
2023-04-09T09:22:54.830Z,5.00
2023-04-09T09:25:24.508Z,4.40
2023-04-09T09:27:51.684Z,4.50
2023-04-09T09:30:22.434Z,4.53
2023-04-09T09:32:53.593Z,4.73
2023-04-09T09:35:21.018Z,4.00
2023-04-09T09:37:48.189Z,4.50
2023-04-09T09:40:27.909Z,4.63
2023-04-09T09:42:55.886Z,5.30
2023-04-09T09:45:23.112Z,5.20
2023-04-09T09:47:51.505Z,5.33
2023-04-09T09:50:18.633Z,5.43
2023-04-09T09:53:03.226Z,5.60
2023-04-09T09:55:33.996Z,5.90
2023-04-09T09:58:03.859Z,6.37
2023-04-09T10:00:32.995Z,6.57
2023-04-09T10:03:04.649Z,6.90
2023-04-09T10:05:31.765Z,6.50
2023-04-09T10:07:59.156Z,6.83
2023-04-09T10:10:27.143Z,6.37
2023-04-09T10:12:54.158Z,6.87
2023-04-09T10:15:21.441Z,6.53
2023-04-09T10:17:48.625Z,7.37
2023-04-09T10:20:20.301Z,7.50
2023-04-09T10:22:48.724Z,6.53
2023-04-09T10:25:16.620Z,5.90
2023-04-09T10:27:46.136Z,6.40
2023-04-09T10:30:33.483Z,6.80
2023-04-09T10:33:13.788Z,6.80
2023-04-09T10:35:40.914Z,4.97
2023-04-09T10:38:08.714Z,6.17
2023-04-09T10:40:36.450Z,5.30
2023-04-09T10:43:04.370Z,6.30
2023-04-09T10:45:40.538Z,5.60
2023-04-09T10:48:12.045Z,5.37
2023-04-09T10:50:39.336Z,5.72
2023-04-09T10:53:06.507Z,4.70
2023-04-09T10:55:36.180Z,4.60
2023-04-09T10:58:04.335Z,5.13
2023-04-09T11:00:31.431Z,5.00
2023-04-09T11:03:10.655Z,4.40
2023-04-09T11:05:40.964Z,5.23
2023-04-09T11:08:13.000Z,4.50
2023-04-09T11:10:41.959Z,3.40
2023-04-09T11:13:13.297Z,3.80
2023-04-09T11:15:40.092Z,4.57
2023-04-09T11:18:07.049Z,4.60
2023-04-09T11:20:34.373Z,4.70
2023-04-09T11:23:01.062Z,3.77
2023-04-09T11:25:40.629Z,3.80
2023-04-09T11:28:08.466Z,4.30
2023-04-09T11:30:37.438Z,4.80
2023-04-09T11:33:04.520Z,4.30
2023-04-09T11:35:34.848Z,4.17
2023-04-09T11:38:01.996Z,4.23
2023-04-09T11:40:29.209Z,4.50
2023-04-09T11:42:57.154Z,4.60
2023-04-09T11:45:26.041Z,4.30
2023-04-09T11:47:53.632Z,5.00
2023-04-09T11:50:21.359Z,4.23
2023-04-09T11:52:48.440Z,4.30
2023-04-09T11:55:28.753Z,4.43
2023-04-09T11:58:02.792Z,4.10
2023-04-09T12:00:29.976Z,4.57
2023-04-09T12:03:04.423Z,4.10
2023-04-09T12:05:32.678Z,4.93
2023-04-09T12:08:01.212Z,4.90
2023-04-09T12:10:29.235Z,4.97
2023-04-09T12:12:56.557Z,5.00
2023-04-09T12:15:24.622Z,4.83
2023-04-09T12:17:52.097Z,4.63
2023-04-09T12:20:39.602Z,4.60
2023-04-09T12:23:07.563Z,5.17
2023-04-09T12:25:36.662Z,4.77
2023-04-09T12:28:04.349Z,4.43
2023-04-09T12:30:31.334Z,4.60
2023-04-09T12:32:58.867Z,4.30
2023-04-09T12:35:26.093Z,5.03
2023-04-09T12:37:53.179Z,4.53
2023-04-09T12:40:20.383Z,3.80
2023-04-09T12:42:47.396Z,4.43
2023-04-09T12:45:16.202Z,4.63
2023-04-09T12:47:43.338Z,4.30
2023-04-09T12:50:10.801Z,4.60
2023-04-09T12:52:38.045Z,4.73
2023-04-09T12:55:05.753Z,4.20
2023-04-09T12:57:33.020Z,4.50
2023-04-09T13:00:00.191Z,4.30
2023-04-09T13:02:27.450Z,4.27
2023-04-09T13:04:54.526Z,4.30
2023-04-09T13:07:22.630Z,4.17
2023-04-09T13:09:50.396Z,4.40
2023-04-09T13:12:17.754Z,4.27
2023-04-09T13:14:46.467Z,4.67
2023-04-09T13:17:13.780Z,4.30
2023-04-09T13:19:42.668Z,4.47
2023-04-09T13:22:10.429Z,4.50
2023-04-09T13:24:37.796Z,4.33
2023-04-09T13:27:05.678Z,4.50
2023-04-09T13:29:32.666Z,4.60
2023-04-09T13:32:01.689Z,4.57
2023-04-09T13:34:28.815Z,4.60
2023-04-09T13:36:56.272Z,4.93
2023-04-09T13:39:23.258Z,4.07
2023-04-09T13:41:50.294Z,4.63
2023-04-09T13:44:17.300Z,4.50
2023-04-09T13:46:44.322Z,4.10
2023-04-09T13:49:11.405Z,4.20
2023-04-09T13:51:38.373Z,4.03
2023-04-09T13:54:06.099Z,4.23
2023-04-09T13:56:33.189Z,3.90
2023-04-09T13:59:00.509Z,3.90
2023-04-09T14:01:27.956Z,4.57
2023-04-09T14:03:55.716Z,4.87
2023-04-09T14:06:23.112Z,4.50
2023-04-09T14:08:50.838Z,4.30
2023-04-09T14:11:17.918Z,4.37
2023-04-09T14:13:44.987Z,4.03
2023-04-09T14:16:12.043Z,4.07
2023-04-09T14:18:39.913Z,4.83
2023-04-09T14:21:09.992Z,4.50
2023-04-09T14:23:37.441Z,4.17
2023-04-09T14:26:04.634Z,3.97
2023-04-09T14:28:32.127Z,4.73
2023-04-09T14:31:02.320Z,4.27
2023-04-09T14:33:29.370Z,4.78
2023-04-09T14:35:56.408Z,4.30
2023-04-09T14:38:26.491Z,4.23
2023-04-09T14:40:53.526Z,4.20
2023-04-09T14:43:20.536Z,4.70
2023-04-09T14:45:47.545Z,4.63
2023-04-09T14:48:14.541Z,4.03
2023-04-09T14:50:42.959Z,4.97
2023-04-09T14:53:10.169Z,5.60
2023-04-09T14:55:37.238Z,4.43
2023-04-09T14:58:07.057Z,4.80
2023-04-09T15:00:34.336Z,4.90
2023-04-09T15:03:01.493Z,5.33
2023-04-09T15:05:28.716Z,5.40
2023-04-09T15:07:56.079Z,4.80
2023-04-09T15:10:51.493Z,4.70
2023-04-09T15:13:59.603Z,4.53
2023-04-09T15:17:07.489Z,5.13
2023-04-09T15:20:11.178Z,5.37
2023-04-09T15:22:53.868Z,4.87
2023-04-09T15:25:34.539Z,4.97
2023-04-09T15:28:14.420Z,5.53
2023-04-09T15:30:50.994Z,5.17
2023-04-09T15:33:23.386Z,5.40
2023-04-09T15:35:55.868Z,5.20
2023-04-09T15:38:28.313Z,5.10
2023-04-09T15:41:01.526Z,5.37
2023-04-09T15:43:33.910Z,4.53
2023-04-09T15:46:12.780Z,4.97
2023-04-09T15:48:43.086Z,4.60
2023-04-09T15:51:13.737Z,5.03
2023-04-09T15:53:43.937Z,4.90
2023-04-09T15:56:15.625Z,4.53
2023-04-09T15:58:48.723Z,5.10
2023-04-09T16:01:31.799Z,5.00
2023-04-09T16:04:01.079Z,4.90
2023-04-09T16:06:28.391Z,4.27
2023-04-09T16:08:55.556Z,5.60
2023-04-09T16:11:22.722Z,4.90
2023-04-09T16:13:49.670Z,4.57
2023-04-09T16:16:58.696Z,5.53
2023-04-09T16:20:08.334Z,5.07
2023-04-09T16:22:37.897Z,6.03
2023-04-09T16:25:46.935Z,5.17
2023-04-09T16:28:56.171Z,6.07
2023-04-09T16:31:26.046Z,5.60
2023-04-09T16:33:53.104Z,5.83
2023-04-09T16:36:20.678Z,5.67
2023-04-09T16:38:49.025Z,5.40
2023-04-09T16:41:16.157Z,5.03
2023-04-09T16:43:43.284Z,5.50
2023-04-09T16:46:10.796Z,5.60
2023-04-09T16:48:41.528Z,5.63
2023-04-09T16:51:08.826Z,5.67
2023-04-09T16:53:38.412Z,5.43
2023-04-09T16:56:06.601Z,5.57
2023-04-09T16:58:33.999Z,5.37
2023-04-09T17:01:02.417Z,5.70
2023-04-09T17:03:29.565Z,5.50
2023-04-09T17:05:57.835Z,5.33
2023-04-09T17:08:24.838Z,5.33
2023-04-09T17:10:52.092Z,5.23
2023-04-09T17:13:19.091Z,5.13
2023-04-09T17:15:46.084Z,5.50
2023-04-09T17:18:13.166Z,4.80
2023-04-09T17:20:40.189Z,4.80
2023-04-09T17:23:07.235Z,4.93
2023-04-09T17:25:34.218Z,5.33
2023-04-09T17:28:01.591Z,5.30
2023-04-09T17:30:28.664Z,4.60
2023-04-09T17:32:55.972Z,4.73
2023-04-09T17:35:23.067Z,5.43
2023-04-09T17:37:50.779Z,5.27
2023-04-09T17:40:19.925Z,5.80
2023-04-09T17:42:47.161Z,5.20
2023-04-09T17:45:14.162Z,4.80
2023-04-09T17:47:41.296Z,5.47
2023-04-09T17:50:08.629Z,4.70
2023-04-09T17:52:37.192Z,4.93
2023-04-09T17:55:07.745Z,4.80
2023-04-09T17:57:35.824Z,5.97
2023-04-09T18:00:45.155Z,5.43
2023-04-09T18:03:20.279Z,5.87
2023-04-09T18:05:50.871Z,6.53
2023-04-09T18:08:21.542Z,6.00
2023-04-09T18:11:05.097Z,5.67
2023-04-09T18:13:39.887Z,6.30
2023-04-09T18:16:11.943Z,6.57
2023-04-09T18:18:40.229Z,6.17
2023-04-09T18:21:08.166Z,5.80
2023-04-09T18:23:35.271Z,5.97
2023-04-09T18:26:02.272Z,5.93
2023-04-09T18:28:29.211Z,6.40
2023-04-09T18:30:55.880Z,6.43
2023-04-09T18:33:22.566Z,6.50
2023-04-09T18:35:49.176Z,6.83
2023-04-09T18:38:15.815Z,6.07
2023-04-09T18:40:45.578Z,7.03
2023-04-09T18:43:12.387Z,6.97
2023-04-09T18:45:39.801Z,7.30
2023-04-09T18:48:07.908Z,7.13
2023-04-09T18:50:34.894Z,7.00
2023-04-09T18:53:03.348Z,6.90
2023-04-09T18:55:30.150Z,7.32
2023-04-09T18:57:57.334Z,6.97
2023-04-09T19:00:24.164Z,6.88
2023-04-09T19:02:50.949Z,6.27
2023-04-09T19:05:17.997Z,6.00
2023-04-09T19:07:44.643Z,6.77
2023-04-09T19:10:13.431Z,6.37
2023-04-09T19:12:47.261Z,6.17
2023-04-09T19:15:13.832Z,5.90
2023-04-09T19:17:40.599Z,5.90
2023-04-09T19:20:07.624Z,5.97
2023-04-09T19:22:34.212Z,6.10
2023-04-09T19:25:00.798Z,6.60
2023-04-09T19:27:27.358Z,5.93
2023-04-09T19:29:53.963Z,6.53
2023-04-09T19:32:20.736Z,6.50
2023-04-09T19:34:47.293Z,7.10
2023-04-09T19:37:15.034Z,7.03
2023-04-09T19:39:41.799Z,6.80
2023-04-09T19:42:08.630Z,6.87
2023-04-09T19:44:35.239Z,6.30
2023-04-09T19:47:01.895Z,7.00
2023-04-09T19:49:29.280Z,6.63
2023-04-09T19:51:55.954Z,6.77
2023-04-09T19:54:22.554Z,6.97
2023-04-09T19:56:49.242Z,7.17
2023-04-09T19:59:15.950Z,6.97
2023-04-09T20:01:43.193Z,7.80
2023-04-09T20:04:09.832Z,7.27
2023-04-09T20:06:36.512Z,8.17
2023-04-09T20:09:03.206Z,8.47
2023-04-09T20:11:29.766Z,8.47
2023-04-09T20:13:57.150Z,7.80
2023-04-09T20:16:23.835Z,6.90
2023-04-09T20:18:50.504Z,7.43
2023-04-09T20:21:17.231Z,8.57
2023-04-09T20:23:45.371Z,8.33
2023-04-09T20:26:13.557Z,7.63
2023-04-09T20:28:40.787Z,7.77
2023-04-09T20:31:10.516Z,7.27
2023-04-09T20:33:37.092Z,6.90
2023-04-09T20:36:03.805Z,7.40
2023-04-09T20:38:30.870Z,7.60
2023-04-09T20:40:57.557Z,7.87
2023-04-09T20:43:24.164Z,7.83
2023-04-09T20:45:52.736Z,7.40
2023-04-09T20:48:19.702Z,8.77
2023-04-09T20:50:46.630Z,8.13
2023-04-09T20:53:13.266Z,8.53
2023-04-09T20:55:39.855Z,8.10
2023-04-09T20:58:06.491Z,8.77
2023-04-09T21:00:33.080Z,8.63
2023-04-09T21:02:59.904Z,8.33
2023-04-09T21:05:26.598Z,8.67
2023-04-09T21:07:53.322Z,8.43
2023-04-09T21:10:20.226Z,8.63
2023-04-09T21:12:46.823Z,9.10
2023-04-09T21:15:13.379Z,8.13
2023-04-09T21:17:40.161Z,8.67
2023-04-09T21:20:07.491Z,7.73
2023-04-09T21:22:34.655Z,8.10
2023-04-09T21:25:02.954Z,8.33
2023-04-09T21:27:29.619Z,9.50
2023-04-09T21:29:56.214Z,9.80
2023-04-09T21:32:22.888Z,9.70
2023-04-09T21:34:49.483Z,9.73
2023-04-09T21:37:16.218Z,10.00
2023-04-09T21:39:42.731Z,9.40
2023-04-09T21:42:09.247Z,9.93
2023-04-09T21:44:35.960Z,10.67
2023-04-09T21:47:07.364Z,12.83
2023-04-09T21:49:38.970Z,10.23
2023-04-09T21:52:06.948Z,9.20
2023-04-09T21:54:33.561Z,9.77
2023-04-09T21:57:00.921Z,9.67
2023-04-09T21:59:28.038Z,9.20
2023-04-09T22:01:54.637Z,10.93
2023-04-09T22:04:21.179Z,10.63
2023-04-09T22:06:48.256Z,10.60
2023-04-09T22:09:14.833Z,10.47
2023-04-09T22:11:42.442Z,9.67
2023-04-09T22:14:08.951Z,9.33
2023-04-09T22:16:35.468Z,9.83
2023-04-09T22:19:02.236Z,9.60
2023-04-09T22:21:28.792Z,9.50
2023-04-09T22:23:55.857Z,9.43
2023-04-09T22:26:22.554Z,9.67
2023-04-09T22:28:50.136Z,9.47
2023-04-09T22:31:16.809Z,9.93
2023-04-09T22:33:43.345Z,9.60
2023-04-09T22:36:09.962Z,9.43
2023-04-09T22:38:36.570Z,8.77
2023-04-09T22:41:03.171Z,10.17
2023-04-09T22:43:29.712Z,9.50
2023-04-09T22:45:57.085Z,10.33
2023-04-09T22:48:23.803Z,9.63
2023-04-09T22:50:50.777Z,9.47
2023-04-09T22:53:21.666Z,9.83
2023-04-09T22:55:51.088Z,10.07
2023-04-09T22:58:18.554Z,10.27
2023-04-09T23:00:45.483Z,9.73
2023-04-09T23:03:12.282Z,9.93
2023-04-09T23:05:39.474Z,9.90
2023-04-09T23:08:06.329Z,10.30
2023-04-09T23:10:33.710Z,10.20
2023-04-09T23:13:00.308Z,10.10
2023-04-09T23:15:27.363Z,9.83
2023-04-09T23:17:54.408Z,9.67
2023-04-09T23:20:20.986Z,10.50
2023-04-09T23:22:48.213Z,10.07
2023-04-09T23:25:16.034Z,10.13
2023-04-09T23:27:43.137Z,10.70
2023-04-09T23:30:10.446Z,10.27
2023-04-09T23:32:37.108Z,11.60
2023-04-09T23:35:04.428Z,10.67
2023-04-09T23:37:31.047Z,12.53
2023-04-09T23:39:57.566Z,11.57
2023-04-09T23:42:24.146Z,11.20
2023-04-09T23:44:50.680Z,11.30
2023-04-09T23:47:17.404Z,10.83
2023-04-09T23:49:44.826Z,11.30
2023-04-09T23:52:11.456Z,12.02
2023-04-09T23:54:37.987Z,11.50
2023-04-09T23:57:04.570Z,11.17
2023-04-09T23:59:33.766Z,11.53
